Valle Del Fuerte International Airport
MMLM : now visible

Airfield :











YOU CAN JOIN US ON...

 
LOGIN :

Register | Disclaimer

   EN    FR    IT 

 









Legend :    VFR   Marginal VFR   IFR   Intensive IFR   Very Intensive IFR
Visi :
Ceiling :
>= 8 km
>= 3000ft
5 to 8 km
1000 to 3000 ft
1500m to 5 km
500 to 1000 ft
800 to 1500m
200 to 500 ft
< 800m
< 200 ft
Symbols :   Thunderstorms  Fog  Heavy snow  Heavy precipitations  Wind > 20 kt






- Airport Elevation : 16 ft
- IATA code : LMM


MMLM - Valle Del Fuerte International

CURRENT METAR :
  • 302142Z 30008KT 10SM SKC 27/06 A2992 RMK HZY

EXPIRED METARs :
  • 302040Z 30009KT 10SM SKC 27/04 A2994 RMK SLP139 HZY
  • 301940Z 31008KT 10SM SKC 26/05 A2998 RMK HZY

TAF TAF MMLM
Valid from the 30 at 18:00 until the 01 at 18:00 UTC


301706Z 3018/0118 34010KT P6SM SKC
FM010300 33005KT P6SM SCT220
FM011200 34010KT P6SM SCT200
MMFR FIR / North America



MET'MAP, your aeronautical weather chart ! - Copyright ORBIFLY December 2007 - Disclaimer

ORBIFLY MET'MAP TEAM :

Programming & Development : Alexandra Zaïnal
Concept & original design : Baudouin d'Aumeries
Assistance for programming : Marc-Olivier Méhu
Technical & hardware support : Manuel Goepfert

Contact : metmap@orbifly.com




SOURCES & CREDITS :

   NOAA       Earth
Advisory